Weather at Worcester Medical Center Heliport

Public forecast

Using degrees Fahrenheit for public forecast. Weather courtesy of forecast.io.

Closest aviation weather report (METAR) to Worcester Medical Center Heliport

Closest report is Worcester Regional Airport, 3.6 nm (6.6 km) WNW. Retrieved 2020/09/24 20:54 UTC (33 minutes ago):

KORH 242054Z 23007KT 10SM CLR 21/13 A2996 RMK AO2 SLP142 T02110133 56005

Closest aviation forecast (TAF) to Worcester Medical Center Heliport

Closest forecast is Worcester Regional Airport, 3.6 nm (6.6 km) WNW. Retrieved 2020/09/24 18:33 UTC (3 hours ago):

TAF KORH 241731Z 2418/2518 25006KT P6SM BKN250 FM242300 23005KT P6SM SCT250 FM250600 27008KT P6SM SCT250